sensor_id;sensor_type;location;lat;lon;timestamp;P1;durP1;ratioP1;P2;durP2;ratioP2
38455;SDS011;24237;50.106;20.014;2022-11-15T00:00:46;400.33;;;27.33;;
38455;SDS011;24237;50.106;20.014;2022-11-15T00:03:14;268.02;;;25.13;;
38455;SDS011;24237;50.106;20.014;2022-11-15T00:05:40;250.10;;;25.13;;
38455;SDS011;24237;50.106;20.014;2022-11-15T00:08:06;228.60;;;21.95;;
38455;SDS011;24237;50.106;20.014;2022-11-15T00:10:31;301.90;;;27.25;;
38455;SDS011;24237;50.106;20.014;2022-11-15T00:12:57;169.57;;;24.58;;
38455;SDS011;24237;50.106;20.014;2022-11-15T00:15:22;191.82;;;26.58;;
38455;SDS011;24237;50.106;20.014;2022-11-15T00:17:49;207.18;;;24.90;;
38455;SDS011;24237;50.106;20.014;2022-11-15T00:20:17;188.00;;;26.85;;
38455;SDS011;24237;50.106;20.014;2022-11-15T00:22:43;157.27;;;27.98;;
38455;SDS011;24237;50.106;20.014;2022-11-15T00:25:11;278.38;;;28.80;;
38455;SDS011;24237;50.106;20.014;2022-11-15T00:27:37;424.38;;;34.50;;
38455;SDS011;24237;50.106;20.014;2022-11-15T00:30:03;306.30;;;30.27;;
38455;SDS011;24237;50.106;20.014;2022-11-15T00:32:32;182.60;;;26.25;;
38455;SDS011;24237;50.106;20.014;2022-11-15T00:34:57;291.05;;;26.48;;
38455;SDS011;24237;50.106;20.014;2022-11-15T00:37:23;168.40;;;22.90;;
38455;SDS011;24237;50.106;20.014;2022-11-15T00:39:49;172.13;;;21.13;;
38455;SDS011;24237;50.106;20.014;2022-11-15T00:42:14;167.48;;;20.15;;
38455;SDS011;24237;50.106;20.014;2022-11-15T00:44:40;173.45;;;22.27;;
38455;SDS011;24237;50.106;20.014;2022-11-15T00:47:05;147.82;;;21.58;;
38455;SDS011;24237;50.106;20.014;2022-11-15T00:49:31;223.18;;;22.65;;
38455;SDS011;24237;50.106;20.014;2022-11-15T00:51:57;208.50;;;23.10;;
38455;SDS011;24237;50.106;20.014;2022-11-15T00:54:22;178.18;;;20.77;;
38455;SDS011;24237;50.106;20.014;2022-11-15T00:56:48;135.63;;;20.58;;
38455;SDS011;24237;50.106;20.014;2022-11-15T00:59:14;247.23;;;22.05;;
38455;SDS011;24237;50.106;20.014;2022-11-15T01:01:39;354.10;;;24.02;;
38455;SDS011;24237;50.106;20.014;2022-11-15T01:04:05;175.13;;;18.77;;
38455;SDS011;24237;50.106;20.014;2022-11-15T01:06:31;189.27;;;19.35;;
38455;SDS011;24237;50.106;20.014;2022-11-15T01:08:57;212.60;;;19.13;;
38455;SDS011;24237;50.106;20.014;2022-11-15T01:11:22;153.05;;;17.15;;
38455;SDS011;24237;50.106;20.014;2022-11-15T01:13:48;217.38;;;19.02;;
38455;SDS011;24237;50.106;20.014;2022-11-15T01:16:15;240.70;;;19.92;;
38455;SDS011;24237;50.106;20.014;2022-11-15T01:18:43;232.00;;;20.35;;
38455;SDS011;24237;50.106;20.014;2022-11-15T01:21:10;263.92;;;22.38;;
38455;SDS011;24237;50.106;20.014;2022-11-15T01:23:41;196.20;;;17.65;;
38455;SDS011;24237;50.106;20.014;2022-11-15T01:26:09;118.75;;;15.95;;
38455;SDS011;24237;50.106;20.014;2022-11-15T01:28:39;197.00;;;18.55;;
38455;SDS011;24237;50.106;20.014;2022-11-15T01:31:08;231.95;;;20.60;;
38455;SDS011;24237;50.106;20.014;2022-11-15T01:33:39;115.53;;;16.35;;
38455;SDS011;24237;50.106;20.014;2022-11-15T01:36:10;256.05;;;19.38;;
38455;SDS011;24237;50.106;20.014;2022-11-15T01:38:38;276.00;;;20.98;;
38455;SDS011;24237;50.106;20.014;2022-11-15T01:41:03;116.88;;;16.40;;
38455;SDS011;24237;50.106;20.014;2022-11-15T01:43:30;255.27;;;18.88;;
38455;SDS011;24237;50.106;20.014;2022-11-15T01:46:03;207.40;;;20.70;;
38455;SDS011;24237;50.106;20.014;2022-11-15T01:48:48;79.25;;;16.20;;
38455;SDS011;24237;50.106;20.014;2022-11-15T01:51:17;115.28;;;16.27;;
38455;SDS011;24237;50.106;20.014;2022-11-15T01:53:45;178.02;;;18.52;;
38455;SDS011;24237;50.106;20.014;2022-11-15T01:56:16;149.88;;;16.25;;
38455;SDS011;24237;50.106;20.014;2022-11-15T01:58:44;68.95;;;14.77;;
38455;SDS011;24237;50.106;20.014;2022-11-15T02:01:11;313.67;;;20.08;;
38455;SDS011;24237;50.106;20.014;2022-11-15T02:03:51;215.32;;;17.23;;
38455;SDS011;24237;50.106;20.014;2022-11-15T02:06:34;133.38;;;15.90;;
38455;SDS011;24237;50.106;20.014;2022-11-15T02:09:00;76.80;;;15.25;;
38455;SDS011;24237;50.106;20.014;2022-11-15T02:11:27;208.85;;;17.33;;
38455;SDS011;24237;50.106;20.014;2022-11-15T02:13:53;123.50;;;15.18;;
38455;SDS011;24237;50.106;20.014;2022-11-15T02:24:48;190.75;;;17.40;;
38455;SDS011;24237;50.106;20.014;2022-11-15T02:32:50;181.50;;;16.90;;
38455;SDS011;24237;50.106;20.014;2022-11-15T02:35:23;226.75;;;19.25;;
38455;SDS011;24237;50.106;20.014;2022-11-15T02:38:28;208.45;;;17.52;;
38455;SDS011;24237;50.106;20.014;2022-11-15T02:40:59;168.90;;;18.27;;
38455;SDS011;24237;50.106;20.014;2022-11-15T02:43:35;132.35;;;18.98;;
38455;SDS011;24237;50.106;20.014;2022-11-15T02:49:16;159.05;;;17.80;;
38455;SDS011;24237;50.106;20.014;2022-11-15T02:51:46;138.70;;;21.08;;
38455;SDS011;24237;50.106;20.014;2022-11-15T02:54:19;178.38;;;21.55;;
38455;SDS011;24237;50.106;20.014;2022-11-15T02:56:47;106.00;;;20.02;;
38455;SDS011;24237;50.106;20.014;2022-11-15T03:02:02;210.43;;;27.23;;
38455;SDS011;24237;50.106;20.014;2022-11-15T03:04:43;268.65;;;25.38;;
38455;SDS011;24237;50.106;20.014;2022-11-15T03:07:19;64.75;;;22.05;;
38455;SDS011;24237;50.106;20.014;2022-11-15T03:12:47;115.00;;;25.05;;
38455;SDS011;24237;50.106;20.014;2022-11-15T03:15:29;215.93;;;30.30;;
38455;SDS011;24237;50.106;20.014;2022-11-15T03:20:29;357.17;;;37.65;;
38455;SDS011;24237;50.106;20.014;2022-11-15T03:22:59;244.93;;;30.58;;
38455;SDS011;24237;50.106;20.014;2022-11-15T03:25:27;202.93;;;31.42;;
38455;SDS011;24237;50.106;20.014;2022-11-15T03:27:56;343.83;;;34.75;;
38455;SDS011;24237;50.106;20.014;2022-11-15T03:30:25;290.17;;;33.95;;
38455;SDS011;24237;50.106;20.014;2022-11-15T03:32:53;169.35;;;26.90;;
38455;SDS011;24237;50.106;20.014;2022-11-15T03:35:23;240.98;;;28.45;;
38455;SDS011;24237;50.106;20.014;2022-11-15T03:37:57;320.90;;;32.05;;
38455;SDS011;24237;50.106;20.014;2022-11-15T03:40:45;122.10;;;25.63;;
38455;SDS011;24237;50.106;20.014;2022-11-15T03:46:33;220.65;;;27.90;;
38455;SDS011;24237;50.106;20.014;2022-11-15T03:49:12;296.48;;;31.00;;
38455;SDS011;24237;50.106;20.014;2022-11-15T03:51:42;121.72;;;24.45;;
38455;SDS011;24237;50.106;20.014;2022-11-15T03:54:07;409.40;;;30.67;;
38455;SDS011;24237;50.106;20.014;2022-11-15T03:56:33;371.10;;;32.08;;
38455;SDS011;24237;50.106;20.014;2022-11-15T03:58:59;258.27;;;30.98;;
38455;SDS011;24237;50.106;20.014;2022-11-15T04:01:24;278.42;;;28.10;;
38455;SDS011;24237;50.106;20.014;2022-11-15T04:03:50;315.30;;;27.90;;
38455;SDS011;24237;50.106;20.014;2022-11-15T04:06:16;241.40;;;25.63;;
38455;SDS011;24237;50.106;20.014;2022-11-15T04:08:44;303.17;;;25.58;;
38455;SDS011;24237;50.106;20.014;2022-11-15T04:11:09;411.88;;;27.88;;
38455;SDS011;24237;50.106;20.014;2022-11-15T04:13:35;103.82;;;19.13;;
38455;SDS011;24237;50.106;20.014;2022-11-15T04:16:00;251.98;;;20.98;;
38455;SDS011;24237;50.106;20.014;2022-11-15T04:18:26;257.92;;;21.92;;
38455;SDS011;24237;50.106;20.014;2022-11-15T04:20:52;332.75;;;22.33;;
38455;SDS011;24237;50.106;20.014;2022-11-15T04:23:36;405.75;;;25.55;;
38455;SDS011;24237;50.106;20.014;2022-11-15T04:26:20;139.27;;;19.50;;
38455;SDS011;24237;50.106;20.014;2022-11-15T04:28:49;358.30;;;24.45;;
38455;SDS011;24237;50.106;20.014;2022-11-15T04:31:37;208.35;;;19.98;;
38455;SDS011;24237;50.106;20.014;2022-11-15T04:34:02;286.38;;;23.05;;
38455;SDS011;24237;50.106;20.014;2022-11-15T04:36:28;211.40;;;20.33;;
38455;SDS011;24237;50.106;20.014;2022-11-15T04:39:12;287.23;;;22.48;;
38455;SDS011;24237;50.106;20.014;2022-11-15T04:41:38;249.15;;;20.42;;
38455;SDS011;24237;50.106;20.014;2022-11-15T04:44:03;219.10;;;18.55;;
38455;SDS011;24237;50.106;20.014;2022-11-15T04:46:29;112.13;;;13.73;;
38455;SDS011;24237;50.106;20.014;2022-11-15T04:48:54;209.52;;;19.58;;
38455;SDS011;24237;50.106;20.014;2022-11-15T04:51:20;112.15;;;15.05;;
38455;SDS011;24237;50.106;20.014;2022-11-15T04:53:46;101.82;;;15.50;;
38455;SDS011;24237;50.106;20.014;2022-11-15T04:56:11;185.27;;;18.85;;
38455;SDS011;24237;50.106;20.014;2022-11-15T04:58:37;104.90;;;17.40;;
38455;SDS011;24237;50.106;20.014;2022-11-15T05:01:06;182.70;;;19.67;;
38455;SDS011;24237;50.106;20.014;2022-11-15T05:03:42;194.30;;;19.50;;
38455;SDS011;24237;50.106;20.014;2022-11-15T05:06:26;237.82;;;20.35;;
38455;SDS011;24237;50.106;20.014;2022-11-15T05:08:52;224.15;;;19.23;;
38455;SDS011;24237;50.106;20.014;2022-11-15T05:11:18;267.00;;;19.45;;
38455;SDS011;24237;50.106;20.014;2022-11-15T05:13:45;211.93;;;18.35;;
38455;SDS011;24237;50.106;20.014;2022-11-15T05:16:10;276.98;;;22.50;;
38455;SDS011;24237;50.106;20.014;2022-11-15T05:18:36;129.15;;;15.82;;
38455;SDS011;24237;50.106;20.014;2022-11-15T05:21:10;409.83;;;23.80;;
38455;SDS011;24237;50.106;20.014;2022-11-15T05:23:38;337.73;;;21.05;;
38455;SDS011;24237;50.106;20.014;2022-11-15T05:26:04;344.67;;;22.42;;
38455;SDS011;24237;50.106;20.014;2022-11-15T05:28:34;216.03;;;15.90;;
38455;SDS011;24237;50.106;20.014;2022-11-15T05:31:04;222.48;;;18.08;;
38455;SDS011;24237;50.106;20.014;2022-11-15T05:33:31;370.08;;;24.55;;
38455;SDS011;24237;50.106;20.014;2022-11-15T05:36:00;139.10;;;13.93;;
38455;SDS011;24237;50.106;20.014;2022-11-15T05:38:31;209.88;;;16.77;;
38455;SDS011;24237;50.106;20.014;2022-11-15T05:40:58;170.90;;;15.85;;
38455;SDS011;24237;50.106;20.014;2022-11-15T05:43:25;212.23;;;17.17;;
38455;SDS011;24237;50.106;20.014;2022-11-15T05:45:51;86.15;;;13.52;;
38455;SDS011;24237;50.106;20.014;2022-11-15T05:48:17;132.25;;;18.02;;
38455;SDS011;24237;50.106;20.014;2022-11-15T05:50:43;87.65;;;15.68;;
38455;SDS011;24237;50.106;20.014;2022-11-15T05:53:11;183.52;;;24.23;;
38455;SDS011;24237;50.106;20.014;2022-11-15T05:55:41;193.43;;;23.27;;
38455;SDS011;24237;50.106;20.014;2022-11-15T05:58:06;259.00;;;23.38;;
38455;SDS011;24237;50.106;20.014;2022-11-15T06:00:32;219.63;;;22.77;;
38455;SDS011;24237;50.106;20.014;2022-11-15T06:02:58;312.88;;;26.92;;
38455;SDS011;24237;50.106;20.014;2022-11-15T06:05:24;186.50;;;25.73;;
38455;SDS011;24237;50.106;20.014;2022-11-15T06:07:49;209.25;;;27.27;;
38455;SDS011;24237;50.106;20.014;2022-11-15T06:10:15;207.57;;;26.23;;
38455;SDS011;24237;50.106;20.014;2022-11-15T06:12:40;332.83;;;32.35;;
38455;SDS011;24237;50.106;20.014;2022-11-15T06:15:06;151.60;;;28.30;;
38455;SDS011;24237;50.106;20.014;2022-11-15T06:17:32;192.00;;;28.55;;
38455;SDS011;24237;50.106;20.014;2022-11-15T06:19:58;149.88;;;27.02;;
38455;SDS011;24237;50.106;20.014;2022-11-15T06:22:23;132.68;;;27.70;;
38455;SDS011;24237;50.106;20.014;2022-11-15T06:24:49;224.68;;;31.67;;
38455;SDS011;24237;50.106;20.014;2022-11-15T06:27:14;297.27;;;31.17;;
38455;SDS011;24237;50.106;20.014;2022-11-15T06:29:40;190.10;;;30.08;;
38455;SDS011;24237;50.106;20.014;2022-11-15T06:32:06;294.00;;;29.27;;
38455;SDS011;24237;50.106;20.014;2022-11-15T06:34:31;168.38;;;27.60;;
38455;SDS011;24237;50.106;20.014;2022-11-15T06:37:17;285.92;;;28.17;;
38455;SDS011;24237;50.106;20.014;2022-11-15T06:39:42;86.30;;;21.42;;
38455;SDS011;24237;50.106;20.014;2022-11-15T06:42:08;154.68;;;20.35;;
38455;SDS011;24237;50.106;20.014;2022-11-15T06:44:34;176.40;;;21.35;;
38455;SDS011;24237;50.106;20.014;2022-11-15T06:47:00;103.30;;;19.58;;
38455;SDS011;24237;50.106;20.014;2022-11-15T06:49:25;140.30;;;22.23;;
38455;SDS011;24237;50.106;20.014;2022-11-15T06:51:51;256.38;;;22.85;;
38455;SDS011;24237;50.106;20.014;2022-11-15T06:54:16;238.45;;;22.75;;
38455;SDS011;24237;50.106;20.014;2022-11-15T06:56:42;224.45;;;22.00;;
38455;SDS011;24237;50.106;20.014;2022-11-15T06:59:08;274.10;;;21.00;;
38455;SDS011;24237;50.106;20.014;2022-11-15T07:01:33;209.13;;;23.17;;
38455;SDS011;24237;50.106;20.014;2022-11-15T07:03:59;223.52;;;23.63;;
38455;SDS011;24237;50.106;20.014;2022-11-15T07:06:25;293.13;;;20.85;;
38455;SDS011;24237;50.106;20.014;2022-11-15T07:08:50;93.05;;;17.00;;
38455;SDS011;24237;50.106;20.014;2022-11-15T07:11:16;82.65;;;15.32;;
38455;SDS011;24237;50.106;20.014;2022-11-15T07:13:42;60.20;;;14.13;;
38455;SDS011;24237;50.106;20.014;2022-11-15T07:16:08;68.22;;;14.45;;
38455;SDS011;24237;50.106;20.014;2022-11-15T07:18:35;97.65;;;16.02;;
38455;SDS011;24237;50.106;20.014;2022-11-15T07:21:06;210.75;;;20.77;;
38455;SDS011;24237;50.106;20.014;2022-11-15T07:23:35;128.05;;;16.95;;
38455;SDS011;24237;50.106;20.014;2022-11-15T07:26:05;103.57;;;18.38;;
38455;SDS011;24237;50.106;20.014;2022-11-15T07:28:31;131.18;;;17.10;;
38455;SDS011;24237;50.106;20.014;2022-11-15T07:30:57;62.92;;;17.17;;
38455;SDS011;24237;50.106;20.014;2022-11-15T07:33:23;124.55;;;18.52;;
38455;SDS011;24237;50.106;20.014;2022-11-15T07:35:48;122.28;;;18.65;;
38455;SDS011;24237;50.106;20.014;2022-11-15T07:38:15;122.00;;;17.00;;
38455;SDS011;24237;50.106;20.014;2022-11-15T07:40:44;190.77;;;18.77;;
38455;SDS011;24237;50.106;20.014;2022-11-15T07:43:10;179.13;;;18.10;;
38455;SDS011;24237;50.106;20.014;2022-11-15T07:45:40;59.72;;;17.70;;
38455;SDS011;24237;50.106;20.014;2022-11-15T07:48:07;188.52;;;19.63;;
38455;SDS011;24237;50.106;20.014;2022-11-15T07:50:32;171.23;;;19.42;;
38455;SDS011;24237;50.106;20.014;2022-11-15T07:52:58;107.00;;;18.45;;
38455;SDS011;24237;50.106;20.014;2022-11-15T07:55:29;105.45;;;16.63;;
38455;SDS011;24237;50.106;20.014;2022-11-15T07:58:04;93.15;;;16.95;;
38455;SDS011;24237;50.106;20.014;2022-11-15T08:00:32;124.00;;;18.80;;
38455;SDS011;24237;50.106;20.014;2022-11-15T08:05:50;133.82;;;21.10;;
38455;SDS011;24237;50.106;20.014;2022-11-15T08:08:16;64.50;;;17.10;;
38455;SDS011;24237;50.106;20.014;2022-11-15T08:10:42;74.78;;;17.58;;
38455;SDS011;24237;50.106;20.014;2022-11-15T08:13:09;124.85;;;22.40;;
38455;SDS011;24237;50.106;20.014;2022-11-15T08:15:36;68.65;;;17.05;;
38455;SDS011;24237;50.106;20.014;2022-11-15T08:18:10;70.03;;;18.17;;
38455;SDS011;24237;50.106;20.014;2022-11-15T08:20:41;93.30;;;16.63;;
38455;SDS011;24237;50.106;20.014;2022-11-15T08:23:07;147.60;;;23.23;;
38455;SDS011;24237;50.106;20.014;2022-11-15T08:25:34;84.93;;;20.05;;
38455;SDS011;24237;50.106;20.014;2022-11-15T08:28:03;142.90;;;18.67;;
38455;SDS011;24237;50.106;20.014;2022-11-15T08:30:30;95.18;;;17.13;;
38455;SDS011;24237;50.106;20.014;2022-11-15T08:33:01;95.03;;;17.10;;
38455;SDS011;24237;50.106;20.014;2022-11-15T08:35:26;104.13;;;17.67;;
38455;SDS011;24237;50.106;20.014;2022-11-15T08:37:53;131.38;;;17.90;;
38455;SDS011;24237;50.106;20.014;2022-11-15T08:40:19;144.52;;;18.77;;
38455;SDS011;24237;50.106;20.014;2022-11-15T08:42:46;52.47;;;16.50;;
38455;SDS011;24237;50.106;20.014;2022-11-15T08:45:30;75.55;;;16.55;;
38455;SDS011;24237;50.106;20.014;2022-11-15T08:47:56;71.72;;;16.30;;
38455;SDS011;24237;50.106;20.014;2022-11-15T08:50:22;102.22;;;18.58;;
38455;SDS011;24237;50.106;20.014;2022-11-15T08:52:48;106.57;;;17.50;;
38455;SDS011;24237;50.106;20.014;2022-11-15T08:55:14;109.95;;;16.45;;
38455;SDS011;24237;50.106;20.014;2022-11-15T08:57:39;108.07;;;19.02;;
38455;SDS011;24237;50.106;20.014;2022-11-15T09:00:05;46.80;;;15.95;;
38455;SDS011;24237;50.106;20.014;2022-11-15T09:02:33;49.22;;;16.25;;
38455;SDS011;24237;50.106;20.014;2022-11-15T09:04:58;51.17;;;17.33;;
38455;SDS011;24237;50.106;20.014;2022-11-15T09:07:24;45.95;;;16.48;;
38455;SDS011;24237;50.106;20.014;2022-11-15T09:09:49;69.72;;;16.27;;
38455;SDS011;24237;50.106;20.014;2022-11-15T09:12:15;30.75;;;15.75;;
38455;SDS011;24237;50.106;20.014;2022-11-15T09:14:40;37.00;;;16.60;;
38455;SDS011;24237;50.106;20.014;2022-11-15T09:17:09;35.60;;;16.00;;
38455;SDS011;24237;50.106;20.014;2022-11-15T09:19:35;48.53;;;17.92;;
38455;SDS011;24237;50.106;20.014;2022-11-15T09:22:01;40.70;;;17.58;;
38455;SDS011;24237;50.106;20.014;2022-11-15T09:24:30;32.38;;;16.67;;
38455;SDS011;24237;50.106;20.014;2022-11-15T09:26:55;35.35;;;17.42;;
38455;SDS011;24237;50.106;20.014;2022-11-15T09:29:24;33.50;;;16.75;;
38455;SDS011;24237;50.106;20.014;2022-11-15T09:31:51;29.80;;;16.15;;
38455;SDS011;24237;50.106;20.014;2022-11-15T09:34:17;37.25;;;18.15;;
38455;SDS011;24237;50.106;20.014;2022-11-15T09:36:43;38.38;;;18.58;;
38455;SDS011;24237;50.106;20.014;2022-11-15T09:39:09;40.30;;;18.52;;
38455;SDS011;24237;50.106;20.014;2022-11-15T09:44:47;40.55;;;18.02;;
38455;SDS011;24237;50.106;20.014;2022-11-15T09:56:02;42.65;;;17.10;;
38455;SDS011;24237;50.106;20.014;2022-11-15T09:58:44;44.75;;;19.80;;
38455;SDS011;24237;50.106;20.014;2022-11-15T10:01:51;40.28;;;18.60;;
38455;SDS011;24237;50.106;20.014;2022-11-15T10:04:33;32.92;;;17.67;;
38455;SDS011;24237;50.106;20.014;2022-11-15T10:07:06;38.17;;;18.70;;
38455;SDS011;24237;50.106;20.014;2022-11-15T10:09:50;40.13;;;21.25;;
38455;SDS011;24237;50.106;20.014;2022-11-15T10:12:24;42.80;;;20.73;;
38455;SDS011;24237;50.106;20.014;2022-11-15T10:14:56;41.10;;;21.65;;
38455;SDS011;24237;50.106;20.014;2022-11-15T10:20:29;39.90;;;20.27;;
38455;SDS011;24237;50.106;20.014;2022-11-15T10:23:19;40.75;;;21.15;;
38455;SDS011;24237;50.106;20.014;2022-11-15T10:25:47;39.10;;;20.13;;
38455;SDS011;24237;50.106;20.014;2022-11-15T10:30:50;42.03;;;22.52;;
38455;SDS011;24237;50.106;20.014;2022-11-15T10:33:19;45.92;;;23.00;;
38455;SDS011;24237;50.106;20.014;2022-11-15T10:41:19;44.10;;;22.63;;
38455;SDS011;24237;50.106;20.014;2022-11-15T10:43:45;47.85;;;23.52;;
38455;SDS011;24237;50.106;20.014;2022-11-15T10:46:32;45.40;;;23.35;;
38455;SDS011;24237;50.106;20.014;2022-11-15T10:57:00;59.05;;;27.00;;
38455;SDS011;24237;50.106;20.014;2022-11-15T10:59:31;63.28;;;28.52;;
38455;SDS011;24237;50.106;20.014;2022-11-15T11:02:00;55.17;;;26.38;;
38455;SDS011;24237;50.106;20.014;2022-11-15T11:04:26;64.13;;;28.23;;
38455;SDS011;24237;50.106;20.014;2022-11-15T11:06:55;64.13;;;28.55;;
38455;SDS011;24237;50.106;20.014;2022-11-15T11:09:42;68.32;;;28.50;;
38455;SDS011;24237;50.106;20.014;2022-11-15T11:12:17;60.63;;;27.45;;
38455;SDS011;24237;50.106;20.014;2022-11-15T11:14:54;68.03;;;30.35;;
38455;SDS011;24237;50.106;20.014;2022-11-15T11:17:32;65.00;;;28.05;;
38455;SDS011;24237;50.106;20.014;2022-11-15T11:36:59;50.55;;;26.83;;
38455;SDS011;24237;50.106;20.014;2022-11-15T11:42:55;44.85;;;21.55;;
38455;SDS011;24237;50.106;20.014;2022-11-15T11:50:30;42.45;;;22.35;;
38455;SDS011;24237;50.106;20.014;2022-11-15T11:53:17;38.87;;;21.73;;
38455;SDS011;24237;50.106;20.014;2022-11-15T11:55:54;42.47;;;22.42;;
38455;SDS011;24237;50.106;20.014;2022-11-15T11:58:44;44.17;;;23.52;;
38455;SDS011;24237;50.106;20.014;2022-11-15T12:01:14;45.28;;;24.15;;
38455;SDS011;24237;50.106;20.014;2022-11-15T12:09:30;33.47;;;20.88;;
38455;SDS011;24237;50.106;20.014;2022-11-15T12:17:34;41.08;;;21.00;;
38455;SDS011;24237;50.106;20.014;2022-11-15T12:20:04;41.90;;;21.77;;
38455;SDS011;24237;50.106;20.014;2022-11-15T12:22:43;39.83;;;19.75;;
38455;SDS011;24237;50.106;20.014;2022-11-15T12:27:46;35.72;;;19.08;;
38455;SDS011;24237;50.106;20.014;2022-11-15T12:30:21;30.20;;;19.48;;
38455;SDS011;24237;50.106;20.014;2022-11-15T12:32:51;33.72;;;18.85;;
38455;SDS011;24237;50.106;20.014;2022-11-15T12:35:26;28.45;;;18.80;;
38455;SDS011;24237;50.106;20.014;2022-11-15T12:38:04;37.35;;;19.98;;
38455;SDS011;24237;50.106;20.014;2022-11-15T12:40:35;43.60;;;21.17;;
38455;SDS011;24237;50.106;20.014;2022-11-15T12:45:36;34.35;;;21.33;;
38455;SDS011;24237;50.106;20.014;2022-11-15T12:51:04;36.95;;;19.77;;
38455;SDS011;24237;50.106;20.014;2022-11-15T12:53:31;37.92;;;20.67;;
38455;SDS011;24237;50.106;20.014;2022-11-15T12:58:43;36.00;;;20.83;;
38455;SDS011;24237;50.106;20.014;2022-11-15T13:01:09;39.40;;;21.17;;
38455;SDS011;24237;50.106;20.014;2022-11-15T13:03:35;46.37;;;20.43;;
38455;SDS011;24237;50.106;20.014;2022-11-15T13:06:43;47.70;;;22.13;;
38455;SDS011;24237;50.106;20.014;2022-11-15T13:14:54;46.15;;;20.83;;
38455;SDS011;24237;50.106;20.014;2022-11-15T13:17:28;38.42;;;21.20;;
38455;SDS011;24237;50.106;20.014;2022-11-15T13:28:27;40.63;;;19.60;;
38455;SDS011;24237;50.106;20.014;2022-11-15T13:34:24;37.92;;;20.30;;
38455;SDS011;24237;50.106;20.014;2022-11-15T13:36:52;39.33;;;21.77;;
38455;SDS011;24237;50.106;20.014;2022-11-15T13:39:31;41.53;;;21.08;;
38455;SDS011;24237;50.106;20.014;2022-11-15T13:41:59;41.75;;;21.88;;
38455;SDS011;24237;50.106;20.014;2022-11-15T13:44:31;41.60;;;21.83;;
38455;SDS011;24237;50.106;20.014;2022-11-15T13:47:02;50.90;;;21.90;;
38455;SDS011;24237;50.106;20.014;2022-11-15T13:49:31;54.30;;;22.88;;
38455;SDS011;24237;50.106;20.014;2022-11-15T13:51:58;39.90;;;21.40;;
38455;SDS011;24237;50.106;20.014;2022-11-15T13:54:30;40.65;;;22.17;;
38455;SDS011;24237;50.106;20.014;2022-11-15T13:57:38;41.33;;;22.00;;
38455;SDS011;24237;50.106;20.014;2022-11-15T14:03:07;40.83;;;22.30;;
38455;SDS011;24237;50.106;20.014;2022-11-15T14:08:37;35.40;;;20.42;;
38455;SDS011;24237;50.106;20.014;2022-11-15T14:11:19;46.83;;;22.58;;
38455;SDS011;24237;50.106;20.014;2022-11-15T14:16:33;41.85;;;21.77;;
38455;SDS011;24237;50.106;20.014;2022-11-15T14:19:00;48.15;;;22.48;;
38455;SDS011;24237;50.106;20.014;2022-11-15T14:21:27;44.22;;;22.35;;
38455;SDS011;24237;50.106;20.014;2022-11-15T14:24:13;45.17;;;21.33;;
38455;SDS011;24237;50.106;20.014;2022-11-15T14:26:40;49.38;;;21.65;;
38455;SDS011;24237;50.106;20.014;2022-11-15T14:31:54;41.80;;;21.77;;
38455;SDS011;24237;50.106;20.014;2022-11-15T14:34:39;39.67;;;21.02;;
38455;SDS011;24237;50.106;20.014;2022-11-15T14:37:07;46.45;;;20.73;;
38455;SDS011;24237;50.106;20.014;2022-11-15T14:39:42;45.13;;;21.63;;
38455;SDS011;24237;50.106;20.014;2022-11-15T14:42:09;57.45;;;24.67;;
38455;SDS011;24237;50.106;20.014;2022-11-15T14:44:34;47.80;;;23.17;;
38455;SDS011;24237;50.106;20.014;2022-11-15T14:47:00;42.05;;;22.83;;
38455;SDS011;24237;50.106;20.014;2022-11-15T14:49:26;44.42;;;23.60;;
38455;SDS011;24237;50.106;20.014;2022-11-15T14:51:51;50.22;;;24.85;;
38455;SDS011;24237;50.106;20.014;2022-11-15T14:54:17;49.85;;;25.27;;
38455;SDS011;24237;50.106;20.014;2022-11-15T14:56:42;45.30;;;24.63;;
38455;SDS011;24237;50.106;20.014;2022-11-15T14:59:08;44.17;;;24.00;;
38455;SDS011;24237;50.106;20.014;2022-11-15T15:01:33;53.38;;;24.50;;
38455;SDS011;24237;50.106;20.014;2022-11-15T15:03:59;48.80;;;25.15;;
38455;SDS011;24237;50.106;20.014;2022-11-15T15:06:25;50.38;;;25.33;;
38455;SDS011;24237;50.106;20.014;2022-11-15T15:08:51;48.22;;;25.23;;
38455;SDS011;24237;50.106;20.014;2022-11-15T15:11:26;49.25;;;25.67;;
38455;SDS011;24237;50.106;20.014;2022-11-15T15:13:54;48.38;;;26.60;;
38455;SDS011;24237;50.106;20.014;2022-11-15T15:16:22;68.53;;;25.35;;
38455;SDS011;24237;50.106;20.014;2022-11-15T15:18:49;56.33;;;26.85;;
38455;SDS011;24237;50.106;20.014;2022-11-15T15:21:25;55.08;;;28.00;;
38455;SDS011;24237;50.106;20.014;2022-11-15T15:23:52;75.13;;;29.10;;
38455;SDS011;24237;50.106;20.014;2022-11-15T15:26:21;55.28;;;28.52;;
38455;SDS011;24237;50.106;20.014;2022-11-15T15:28:50;59.78;;;27.65;;
38455;SDS011;24237;50.106;20.014;2022-11-15T15:31:16;56.45;;;27.63;;
38455;SDS011;24237;50.106;20.014;2022-11-15T15:33:42;48.35;;;26.77;;
38455;SDS011;24237;50.106;20.014;2022-11-15T15:36:12;55.60;;;28.17;;
38455;SDS011;24237;50.106;20.014;2022-11-15T15:38:39;62.70;;;27.25;;
38455;SDS011;24237;50.106;20.014;2022-11-15T15:41:09;52.97;;;27.05;;
38455;SDS011;24237;50.106;20.014;2022-11-15T15:43:36;54.17;;;26.92;;
38455;SDS011;24237;50.106;20.014;2022-11-15T15:46:01;51.13;;;27.45;;
38455;SDS011;24237;50.106;20.014;2022-11-15T15:48:27;60.22;;;27.65;;
38455;SDS011;24237;50.106;20.014;2022-11-15T15:51:13;59.15;;;28.42;;
38455;SDS011;24237;50.106;20.014;2022-11-15T15:53:38;52.03;;;28.48;;
38455;SDS011;24237;50.106;20.014;2022-11-15T15:56:04;53.72;;;26.83;;
38455;SDS011;24237;50.106;20.014;2022-11-15T15:58:33;57.80;;;27.73;;
38455;SDS011;24237;50.106;20.014;2022-11-15T16:01:05;65.53;;;28.88;;
38455;SDS011;24237;50.106;20.014;2022-11-15T16:03:30;52.90;;;25.27;;
38455;SDS011;24237;50.106;20.014;2022-11-15T16:05:57;59.38;;;29.13;;
38455;SDS011;24237;50.106;20.014;2022-11-15T16:08:24;62.67;;;26.52;;
38455;SDS011;24237;50.106;20.014;2022-11-15T16:10:51;68.47;;;30.02;;
38455;SDS011;24237;50.106;20.014;2022-11-15T16:13:17;61.00;;;28.35;;
38455;SDS011;24237;50.106;20.014;2022-11-15T16:15:43;64.65;;;27.52;;
38455;SDS011;24237;50.106;20.014;2022-11-15T16:18:12;56.20;;;28.08;;
38455;SDS011;24237;50.106;20.014;2022-11-15T16:20:43;68.40;;;28.65;;
38455;SDS011;24237;50.106;20.014;2022-11-15T16:23:11;62.47;;;29.77;;
38455;SDS011;24237;50.106;20.014;2022-11-15T16:28:15;60.08;;;28.25;;
38455;SDS011;24237;50.106;20.014;2022-11-15T16:31:19;73.93;;;30.10;;
38455;SDS011;24237;50.106;20.014;2022-11-15T16:36:33;84.72;;;29.67;;
38455;SDS011;24237;50.106;20.014;2022-11-15T16:42:21;77.80;;;30.50;;
38455;SDS011;24237;50.106;20.014;2022-11-15T16:44:47;79.43;;;29.52;;